Terminal Aerodrome Forecast
Issued by NWS Flagstaff, AZ

Home | Current Version | Previous Version | Text Only | Print | Product List | Glossary On
Versions: 1 2 3 4 5 6 7 8 9 10 11 12 13 14 15 16 17 18
581
FTUS45 KFGZ 211120
TAFINW
TAF
KINW 211120Z 2112/2212 25005KT P6SM FEW250
     FM211500 32008KT P6SM FEW250
     FM220200 VRB05KT P6SM FEW250=

USA.gov is the U.S. government's official web portal to all federal, state and local government web resources and services.